sensor_id;sensor_type;location;lat;lon;timestamp;P1;durP1;ratioP1;P2;durP2;ratioP2
4831;SDS011;2430;51.322;7.864;2023-09-30T00:01:11;13.40;;;6.23;;
4831;SDS011;2430;51.322;7.864;2023-09-30T00:03:39;11.73;;;6.00;;
4831;SDS011;2430;51.322;7.864;2023-09-30T00:06:05;16.63;;;7.13;;
4831;SDS011;2430;51.322;7.864;2023-09-30T00:08:32;13.70;;;6.80;;
4831;SDS011;2430;51.322;7.864;2023-09-30T00:10:59;13.30;;;6.80;;
4831;SDS011;2430;51.322;7.864;2023-09-30T00:13:25;13.83;;;6.90;;
4831;SDS011;2430;51.322;7.864;2023-09-30T00:15:53;12.53;;;6.77;;
4831;SDS011;2430;51.322;7.864;2023-09-30T00:18:20;12.73;;;6.27;;
4831;SDS011;2430;51.322;7.864;2023-09-30T00:20:46;15.10;;;7.50;;
4831;SDS011;2430;51.322;7.864;2023-09-30T00:23:13;10.33;;;6.33;;
4831;SDS011;2430;51.322;7.864;2023-09-30T00:25:39;13.87;;;6.27;;
4831;SDS011;2430;51.322;7.864;2023-09-30T00:28:07;12.37;;;5.60;;
4831;SDS011;2430;51.322;7.864;2023-09-30T00:30:33;16.40;;;6.20;;
4831;SDS011;2430;51.322;7.864;2023-09-30T00:33:01;10.77;;;5.57;;
4831;SDS011;2430;51.322;7.864;2023-09-30T00:35:28;10.40;;;6.50;;
4831;SDS011;2430;51.322;7.864;2023-09-30T00:37:54;10.37;;;6.50;;
4831;SDS011;2430;51.322;7.864;2023-09-30T00:40:21;16.30;;;6.93;;
4831;SDS011;2430;51.322;7.864;2023-09-30T00:42:48;13.07;;;7.43;;
4831;SDS011;2430;51.322;7.864;2023-09-30T00:45:14;12.43;;;6.33;;
4831;SDS011;2430;51.322;7.864;2023-09-30T00:47:41;9.40;;;6.27;;
4831;SDS011;2430;51.322;7.864;2023-09-30T00:50:09;14.20;;;6.47;;
4831;SDS011;2430;51.322;7.864;2023-09-30T00:52:38;16.73;;;6.30;;
4831;SDS011;2430;51.322;7.864;2023-09-30T00:55:05;20.17;;;6.70;;
4831;SDS011;2430;51.322;7.864;2023-09-30T00:57:31;12.27;;;6.47;;
4831;SDS011;2430;51.322;7.864;2023-09-30T00:59:58;14.23;;;6.30;;
4831;SDS011;2430;51.322;7.864;2023-09-30T01:02:26;15.80;;;6.00;;
4831;SDS011;2430;51.322;7.864;2023-09-30T01:04:52;19.80;;;6.47;;
4831;SDS011;2430;51.322;7.864;2023-09-30T01:07:20;11.20;;;6.20;;
4831;SDS011;2430;51.322;7.864;2023-09-30T01:09:47;19.43;;;6.87;;
4831;SDS011;2430;51.322;7.864;2023-09-30T01:12:13;10.70;;;6.63;;
4831;SDS011;2430;51.322;7.864;2023-09-30T01:14:40;21.43;;;6.60;;
4831;SDS011;2430;51.322;7.864;2023-09-30T01:17:07;12.20;;;6.87;;
4831;SDS011;2430;51.322;7.864;2023-09-30T01:19:34;14.13;;;6.50;;
4831;SDS011;2430;51.322;7.864;2023-09-30T01:22:02;12.50;;;6.30;;
4831;SDS011;2430;51.322;7.864;2023-09-30T01:24:37;13.40;;;6.50;;
4831;SDS011;2430;51.322;7.864;2023-09-30T01:27:04;10.00;;;6.50;;
4831;SDS011;2430;51.322;7.864;2023-09-30T01:29:30;13.70;;;5.90;;
4831;SDS011;2430;51.322;7.864;2023-09-30T01:31:57;10.33;;;6.27;;
4831;SDS011;2430;51.322;7.864;2023-09-30T01:34:23;14.03;;;6.00;;
4831;SDS011;2430;51.322;7.864;2023-09-30T01:36:50;22.83;;;6.07;;
4831;SDS011;2430;51.322;7.864;2023-09-30T01:39:17;10.17;;;6.20;;
4831;SDS011;2430;51.322;7.864;2023-09-30T01:41:44;14.73;;;6.27;;
4831;SDS011;2430;51.322;7.864;2023-09-30T01:44:10;18.63;;;5.80;;
4831;SDS011;2430;51.322;7.864;2023-09-30T01:46:37;14.33;;;6.73;;
4831;SDS011;2430;51.322;7.864;2023-09-30T01:49:03;13.53;;;5.90;;
4831;SDS011;2430;51.322;7.864;2023-09-30T01:51:30;8.87;;;5.90;;
4831;SDS011;2430;51.322;7.864;2023-09-30T01:53:56;17.60;;;6.60;;
4831;SDS011;2430;51.322;7.864;2023-09-30T01:56:24;10.87;;;6.23;;
4831;SDS011;2430;51.322;7.864;2023-09-30T01:58:50;10.60;;;6.00;;
4831;SDS011;2430;51.322;7.864;2023-09-30T02:01:16;9.93;;;6.10;;
4831;SDS011;2430;51.322;7.864;2023-09-30T02:03:43;12.47;;;6.40;;
4831;SDS011;2430;51.322;7.864;2023-09-30T02:06:09;10.80;;;6.23;;
4831;SDS011;2430;51.322;7.864;2023-09-30T02:08:36;11.97;;;5.93;;
4831;SDS011;2430;51.322;7.864;2023-09-30T02:11:02;9.90;;;5.87;;
4831;SDS011;2430;51.322;7.864;2023-09-30T02:13:32;13.33;;;5.60;;
4831;SDS011;2430;51.322;7.864;2023-09-30T02:15:58;14.70;;;6.30;;
4831;SDS011;2430;51.322;7.864;2023-09-30T02:18:24;16.20;;;6.10;;
4831;SDS011;2430;51.322;7.864;2023-09-30T02:20:51;14.97;;;6.47;;
4831;SDS011;2430;51.322;7.864;2023-09-30T02:23:18;15.13;;;6.37;;
4831;SDS011;2430;51.322;7.864;2023-09-30T02:25:46;13.70;;;5.77;;
4831;SDS011;2430;51.322;7.864;2023-09-30T02:28:12;14.73;;;6.77;;
4831;SDS011;2430;51.322;7.864;2023-09-30T02:30:40;13.57;;;6.40;;
4831;SDS011;2430;51.322;7.864;2023-09-30T02:33:06;9.43;;;5.80;;
4831;SDS011;2430;51.322;7.864;2023-09-30T02:35:33;12.80;;;5.50;;
4831;SDS011;2430;51.322;7.864;2023-09-30T02:37:59;11.80;;;5.53;;
4831;SDS011;2430;51.322;7.864;2023-09-30T02:40:25;10.90;;;5.60;;
4831;SDS011;2430;51.322;7.864;2023-09-30T02:42:52;12.90;;;7.43;;
4831;SDS011;2430;51.322;7.864;2023-09-30T02:45:19;18.20;;;6.00;;
4831;SDS011;2430;51.322;7.864;2023-09-30T02:47:46;14.13;;;8.30;;
4831;SDS011;2430;51.322;7.864;2023-09-30T02:50:13;17.40;;;5.90;;
4831;SDS011;2430;51.322;7.864;2023-09-30T02:52:39;11.63;;;5.93;;
4831;SDS011;2430;51.322;7.864;2023-09-30T02:55:06;15.30;;;6.10;;
4831;SDS011;2430;51.322;7.864;2023-09-30T02:57:33;15.37;;;6.40;;
4831;SDS011;2430;51.322;7.864;2023-09-30T03:00:00;13.87;;;6.20;;
4831;SDS011;2430;51.322;7.864;2023-09-30T03:02:37;14.73;;;6.37;;
4831;SDS011;2430;51.322;7.864;2023-09-30T03:05:05;17.30;;;6.67;;
4831;SDS011;2430;51.322;7.864;2023-09-30T03:07:32;16.73;;;6.60;;
4831;SDS011;2430;51.322;7.864;2023-09-30T03:09:58;16.50;;;6.00;;
4831;SDS011;2430;51.322;7.864;2023-09-30T03:12:25;18.90;;;6.57;;
4831;SDS011;2430;51.322;7.864;2023-09-30T03:14:51;15.37;;;6.40;;
4831;SDS011;2430;51.322;7.864;2023-09-30T03:17:17;16.57;;;5.50;;
4831;SDS011;2430;51.322;7.864;2023-09-30T03:19:44;8.70;;;5.13;;
4831;SDS011;2430;51.322;7.864;2023-09-30T03:22:11;16.30;;;6.10;;
4831;SDS011;2430;51.322;7.864;2023-09-30T03:24:38;12.90;;;6.17;;
4831;SDS011;2430;51.322;7.864;2023-09-30T03:27:05;11.57;;;5.93;;
4831;SDS011;2430;51.322;7.864;2023-09-30T03:29:33;13.87;;;6.13;;
4831;SDS011;2430;51.322;7.864;2023-09-30T03:32:01;12.57;;;5.70;;
4831;SDS011;2430;51.322;7.864;2023-09-30T03:34:27;20.80;;;5.67;;
4831;SDS011;2430;51.322;7.864;2023-09-30T03:36:54;17.30;;;6.30;;
4831;SDS011;2430;51.322;7.864;2023-09-30T03:39:25;14.70;;;5.90;;
4831;SDS011;2430;51.322;7.864;2023-09-30T03:41:52;13.33;;;6.00;;
4831;SDS011;2430;51.322;7.864;2023-09-30T03:44:19;13.30;;;5.47;;
4831;SDS011;2430;51.322;7.864;2023-09-30T03:46:45;15.97;;;5.97;;
4831;SDS011;2430;51.322;7.864;2023-09-30T03:49:12;9.37;;;5.53;;
4831;SDS011;2430;51.322;7.864;2023-09-30T03:51:38;14.00;;;6.40;;
4831;SDS011;2430;51.322;7.864;2023-09-30T03:54:05;15.93;;;6.40;;
4831;SDS011;2430;51.322;7.864;2023-09-30T03:56:35;20.00;;;5.93;;
4831;SDS011;2430;51.322;7.864;2023-09-30T03:59:02;11.30;;;5.67;;
4831;SDS011;2430;51.322;7.864;2023-09-30T04:01:29;9.10;;;5.80;;
4831;SDS011;2430;51.322;7.864;2023-09-30T04:03:56;14.73;;;5.67;;
4831;SDS011;2430;51.322;7.864;2023-09-30T04:06:22;15.40;;;6.70;;
4831;SDS011;2430;51.322;7.864;2023-09-30T04:08:49;9.60;;;4.90;;
4831;SDS011;2430;51.322;7.864;2023-09-30T04:11:16;9.93;;;5.90;;
4831;SDS011;2430;51.322;7.864;2023-09-30T04:13:45;15.60;;;6.47;;
4831;SDS011;2430;51.322;7.864;2023-09-30T04:16:11;30.37;;;7.83;;
4831;SDS011;2430;51.322;7.864;2023-09-30T04:18:37;12.13;;;5.80;;
4831;SDS011;2430;51.322;7.864;2023-09-30T04:21:05;21.73;;;6.97;;
4831;SDS011;2430;51.322;7.864;2023-09-30T04:23:32;21.83;;;7.87;;
4831;SDS011;2430;51.322;7.864;2023-09-30T04:26:01;18.23;;;6.33;;
4831;SDS011;2430;51.322;7.864;2023-09-30T04:28:27;12.53;;;6.50;;
4831;SDS011;2430;51.322;7.864;2023-09-30T04:30:55;18.23;;;5.80;;
4831;SDS011;2430;51.322;7.864;2023-09-30T04:33:23;10.50;;;5.80;;
4831;SDS011;2430;51.322;7.864;2023-09-30T04:35:50;12.70;;;6.37;;
4831;SDS011;2430;51.322;7.864;2023-09-30T04:38:16;14.00;;;6.60;;
4831;SDS011;2430;51.322;7.864;2023-09-30T04:40:42;12.90;;;5.50;;
4831;SDS011;2430;51.322;7.864;2023-09-30T04:43:09;10.63;;;5.90;;
4831;SDS011;2430;51.322;7.864;2023-09-30T04:45:36;12.80;;;6.47;;
4831;SDS011;2430;51.322;7.864;2023-09-30T04:48:04;13.57;;;6.10;;
4831;SDS011;2430;51.322;7.864;2023-09-30T04:50:31;8.47;;;5.17;;
4831;SDS011;2430;51.322;7.864;2023-09-30T04:52:57;14.47;;;5.47;;
4831;SDS011;2430;51.322;7.864;2023-09-30T04:55:24;12.87;;;4.60;;
4831;SDS011;2430;51.322;7.864;2023-09-30T04:57:51;13.07;;;5.07;;
4831;SDS011;2430;51.322;7.864;2023-09-30T05:00:18;9.27;;;4.37;;
4831;SDS011;2430;51.322;7.864;2023-09-30T05:02:50;8.67;;;4.70;;
4831;SDS011;2430;51.322;7.864;2023-09-30T05:05:18;21.40;;;6.77;;
4831;SDS011;2430;51.322;7.864;2023-09-30T05:07:46;53.70;;;7.03;;
4831;SDS011;2430;51.322;7.864;2023-09-30T05:10:13;126.43;;;8.33;;
4831;SDS011;2430;51.322;7.864;2023-09-30T05:12:41;104.30;;;7.67;;
4831;SDS011;2430;51.322;7.864;2023-09-30T05:15:11;44.20;;;8.40;;
4831;SDS011;2430;51.322;7.864;2023-09-30T05:17:37;33.90;;;7.70;;
4831;SDS011;2430;51.322;7.864;2023-09-30T05:20:04;29.60;;;7.73;;
4831;SDS011;2430;51.322;7.864;2023-09-30T05:22:33;19.30;;;7.77;;
4831;SDS011;2430;51.322;7.864;2023-09-30T05:24:59;15.60;;;6.80;;
4831;SDS011;2430;51.322;7.864;2023-09-30T05:27:26;12.23;;;7.13;;
4831;SDS011;2430;51.322;7.864;2023-09-30T05:29:53;17.13;;;6.57;;
4831;SDS011;2430;51.322;7.864;2023-09-30T05:32:20;15.77;;;7.03;;
4831;SDS011;2430;51.322;7.864;2023-09-30T05:34:47;32.23;;;7.10;;
4831;SDS011;2430;51.322;7.864;2023-09-30T05:37:14;23.90;;;7.40;;
4831;SDS011;2430;51.322;7.864;2023-09-30T05:39:41;30.93;;;6.80;;
4831;SDS011;2430;51.322;7.864;2023-09-30T05:42:09;14.27;;;6.17;;
4831;SDS011;2430;51.322;7.864;2023-09-30T05:44:36;9.50;;;5.57;;
4831;SDS011;2430;51.322;7.864;2023-09-30T05:47:02;14.57;;;5.50;;
4831;SDS011;2430;51.322;7.864;2023-09-30T05:49:30;42.23;;;7.60;;
4831;SDS011;2430;51.322;7.864;2023-09-30T05:51:56;56.00;;;6.80;;
4831;SDS011;2430;51.322;7.864;2023-09-30T05:54:23;54.97;;;6.80;;
4831;SDS011;2430;51.322;7.864;2023-09-30T05:56:50;21.97;;;5.00;;
4831;SDS011;2430;51.322;7.864;2023-09-30T05:59:17;155.87;;;8.70;;
4831;SDS011;2430;51.322;7.864;2023-09-30T06:01:43;59.73;;;6.63;;
4831;SDS011;2430;51.322;7.864;2023-09-30T06:04:11;243.43;;;7.60;;
4831;SDS011;2430;51.322;7.864;2023-09-30T06:06:37;73.00;;;5.80;;
4831;SDS011;2430;51.322;7.864;2023-09-30T06:09:04;9.17;;;4.43;;
4831;SDS011;2430;51.322;7.864;2023-09-30T06:11:33;6.73;;;4.97;;
4831;SDS011;2430;51.322;7.864;2023-09-30T06:14:02;112.63;;;6.57;;
4831;SDS011;2430;51.322;7.864;2023-09-30T06:16:31;40.67;;;5.87;;
4831;SDS011;2430;51.322;7.864;2023-09-30T06:18:57;10.50;;;4.50;;
4831;SDS011;2430;51.322;7.864;2023-09-30T06:21:24;61.93;;;5.90;;
4831;SDS011;2430;51.322;7.864;2023-09-30T06:23:54;40.97;;;5.73;;
4831;SDS011;2430;51.322;7.864;2023-09-30T06:26:20;29.60;;;5.33;;
4831;SDS011;2430;51.322;7.864;2023-09-30T06:28:47;22.83;;;4.80;;
4831;SDS011;2430;51.322;7.864;2023-09-30T06:31:14;50.63;;;5.20;;
4831;SDS011;2430;51.322;7.864;2023-09-30T06:33:41;25.43;;;4.90;;
4831;SDS011;2430;51.322;7.864;2023-09-30T06:36:08;14.67;;;4.30;;
4831;SDS011;2430;51.322;7.864;2023-09-30T06:38:35;20.33;;;5.20;;
4831;SDS011;2430;51.322;7.864;2023-09-30T06:41:02;9.40;;;4.43;;
4831;SDS011;2430;51.322;7.864;2023-09-30T06:43:29;14.03;;;5.10;;
4831;SDS011;2430;51.322;7.864;2023-09-30T06:45:55;85.50;;;5.80;;
4831;SDS011;2430;51.322;7.864;2023-09-30T06:48:23;19.27;;;4.83;;
4831;SDS011;2430;51.322;7.864;2023-09-30T06:50:49;8.53;;;4.90;;
4831;SDS011;2430;51.322;7.864;2023-09-30T06:53:17;13.87;;;5.07;;
4831;SDS011;2430;51.322;7.864;2023-09-30T06:55:44;37.40;;;5.50;;
4831;SDS011;2430;51.322;7.864;2023-09-30T06:58:11;58.60;;;5.87;;
4831;SDS011;2430;51.322;7.864;2023-09-30T07:00:40;13.07;;;5.30;;
4831;SDS011;2430;51.322;7.864;2023-09-30T07:03:06;25.30;;;6.40;;
4831;SDS011;2430;51.322;7.864;2023-09-30T07:05:35;9.40;;;4.70;;
4831;SDS011;2430;51.322;7.864;2023-09-30T07:08:02;8.20;;;5.90;;
4831;SDS011;2430;51.322;7.864;2023-09-30T07:10:29;12.33;;;5.53;;
4831;SDS011;2430;51.322;7.864;2023-09-30T07:12:58;9.53;;;5.43;;
4831;SDS011;2430;51.322;7.864;2023-09-30T07:15:24;9.70;;;5.33;;
4831;SDS011;2430;51.322;7.864;2023-09-30T07:17:51;10.40;;;5.80;;
4831;SDS011;2430;51.322;7.864;2023-09-30T07:20:17;9.33;;;5.70;;
4831;SDS011;2430;51.322;7.864;2023-09-30T07:22:46;10.53;;;6.60;;
4831;SDS011;2430;51.322;7.864;2023-09-30T07:25:12;13.37;;;6.40;;
4831;SDS011;2430;51.322;7.864;2023-09-30T07:27:39;10.63;;;6.73;;
4831;SDS011;2430;51.322;7.864;2023-09-30T07:30:06;8.90;;;6.10;;
4831;SDS011;2430;51.322;7.864;2023-09-30T07:32:33;15.83;;;6.00;;
4831;SDS011;2430;51.322;7.864;2023-09-30T07:34:59;10.20;;;6.10;;
4831;SDS011;2430;51.322;7.864;2023-09-30T07:37:26;9.50;;;6.23;;
4831;SDS011;2430;51.322;7.864;2023-09-30T07:39:55;8.93;;;6.00;;
4831;SDS011;2430;51.322;7.864;2023-09-30T07:42:21;10.10;;;5.90;;
4831;SDS011;2430;51.322;7.864;2023-09-30T07:44:49;8.33;;;5.67;;
4831;SDS011;2430;51.322;7.864;2023-09-30T07:47:15;8.20;;;4.53;;
4831;SDS011;2430;51.322;7.864;2023-09-30T07:49:41;15.50;;;5.80;;
4831;SDS011;2430;51.322;7.864;2023-09-30T07:52:08;11.13;;;5.47;;
4831;SDS011;2430;51.322;7.864;2023-09-30T07:54:35;10.00;;;4.77;;
4831;SDS011;2430;51.322;7.864;2023-09-30T07:57:02;12.97;;;5.27;;
4831;SDS011;2430;51.322;7.864;2023-09-30T07:59:29;15.50;;;4.67;;
4831;SDS011;2430;51.322;7.864;2023-09-30T08:01:58;8.50;;;4.70;;
4831;SDS011;2430;51.322;7.864;2023-09-30T08:04:24;7.73;;;4.47;;
4831;SDS011;2430;51.322;7.864;2023-09-30T08:06:51;14.67;;;4.50;;
4831;SDS011;2430;51.322;7.864;2023-09-30T08:09:18;10.60;;;5.03;;
4831;SDS011;2430;51.322;7.864;2023-09-30T08:11:45;14.80;;;3.77;;
4831;SDS011;2430;51.322;7.864;2023-09-30T08:14:12;9.90;;;4.27;;
4831;SDS011;2430;51.322;7.864;2023-09-30T08:16:40;7.63;;;4.13;;
4831;SDS011;2430;51.322;7.864;2023-09-30T08:19:07;10.23;;;4.20;;
4831;SDS011;2430;51.322;7.864;2023-09-30T08:21:34;11.20;;;4.00;;
4831;SDS011;2430;51.322;7.864;2023-09-30T08:24:01;4.67;;;3.40;;
4831;SDS011;2430;51.322;7.864;2023-09-30T08:26:28;6.50;;;3.80;;
4831;SDS011;2430;51.322;7.864;2023-09-30T08:28:54;11.30;;;4.57;;
4831;SDS011;2430;51.322;7.864;2023-09-30T08:31:22;8.80;;;4.33;;
4831;SDS011;2430;51.322;7.864;2023-09-30T08:33:49;6.73;;;3.40;;
4831;SDS011;2430;51.322;7.864;2023-09-30T08:36:15;7.03;;;3.20;;
4831;SDS011;2430;51.322;7.864;2023-09-30T08:38:42;11.43;;;3.43;;
4831;SDS011;2430;51.322;7.864;2023-09-30T08:41:09;13.20;;;3.73;;
4831;SDS011;2430;51.322;7.864;2023-09-30T08:43:36;11.43;;;3.60;;
4831;SDS011;2430;51.322;7.864;2023-09-30T08:46:04;8.60;;;3.17;;
4831;SDS011;2430;51.322;7.864;2023-09-30T08:48:33;9.70;;;3.47;;
4831;SDS011;2430;51.322;7.864;2023-09-30T08:51:00;8.60;;;3.40;;
4831;SDS011;2430;51.322;7.864;2023-09-30T08:53:26;7.23;;;3.70;;
4831;SDS011;2430;51.322;7.864;2023-09-30T08:55:55;5.43;;;3.17;;
4831;SDS011;2430;51.322;7.864;2023-09-30T08:58:22;9.77;;;2.90;;
4831;SDS011;2430;51.322;7.864;2023-09-30T09:00:49;9.70;;;3.30;;
4831;SDS011;2430;51.322;7.864;2023-09-30T09:03:19;10.10;;;4.10;;
4831;SDS011;2430;51.322;7.864;2023-09-30T09:05:47;7.77;;;3.83;;
4831;SDS011;2430;51.322;7.864;2023-09-30T09:08:19;18.40;;;3.13;;
4831;SDS011;2430;51.322;7.864;2023-09-30T09:10:53;7.23;;;2.97;;
4831;SDS011;2430;51.322;7.864;2023-09-30T09:13:19;9.27;;;3.70;;
4831;SDS011;2430;51.322;7.864;2023-09-30T09:15:45;7.80;;;3.73;;
4831;SDS011;2430;51.322;7.864;2023-09-30T09:18:12;9.07;;;3.97;;
4831;SDS011;2430;51.322;7.864;2023-09-30T09:20:40;10.87;;;4.10;;
4831;SDS011;2430;51.322;7.864;2023-09-30T09:23:08;11.10;;;3.80;;
4831;SDS011;2430;51.322;7.864;2023-09-30T09:25:37;13.13;;;4.00;;
4831;SDS011;2430;51.322;7.864;2023-09-30T09:28:04;17.40;;;3.90;;
4831;SDS011;2430;51.322;7.864;2023-09-30T09:30:34;13.57;;;4.83;;
4831;SDS011;2430;51.322;7.864;2023-09-30T09:33:06;10.17;;;3.60;;
4831;SDS011;2430;51.322;7.864;2023-09-30T09:35:33;8.03;;;3.50;;
4831;SDS011;2430;51.322;7.864;2023-09-30T09:38:00;11.33;;;3.93;;
4831;SDS011;2430;51.322;7.864;2023-09-30T09:40:29;13.73;;;4.40;;
4831;SDS011;2430;51.322;7.864;2023-09-30T09:42:56;11.37;;;3.97;;
4831;SDS011;2430;51.322;7.864;2023-09-30T09:45:24;13.50;;;3.97;;
4831;SDS011;2430;51.322;7.864;2023-09-30T09:47:51;12.50;;;3.73;;
4831;SDS011;2430;51.322;7.864;2023-09-30T09:50:18;11.10;;;4.20;;
4831;SDS011;2430;51.322;7.864;2023-09-30T09:52:44;10.27;;;4.07;;
4831;SDS011;2430;51.322;7.864;2023-09-30T09:55:13;11.57;;;4.47;;
4831;SDS011;2430;51.322;7.864;2023-09-30T09:57:42;12.93;;;4.63;;
4831;SDS011;2430;51.322;7.864;2023-09-30T10:00:10;8.60;;;3.70;;
4831;SDS011;2430;51.322;7.864;2023-09-30T10:02:39;9.10;;;3.47;;
4831;SDS011;2430;51.322;7.864;2023-09-30T10:05:06;9.03;;;3.43;;
4831;SDS011;2430;51.322;7.864;2023-09-30T10:07:33;17.43;;;4.30;;
4831;SDS011;2430;51.322;7.864;2023-09-30T10:10:02;9.57;;;3.77;;
4831;SDS011;2430;51.322;7.864;2023-09-30T10:12:35;7.00;;;3.53;;
4831;SDS011;2430;51.322;7.864;2023-09-30T10:15:14;13.90;;;3.93;;
4831;SDS011;2430;51.322;7.864;2023-09-30T10:18:01;7.23;;;3.40;;
4831;SDS011;2430;51.322;7.864;2023-09-30T10:20:29;12.30;;;5.10;;
4831;SDS011;2430;51.322;7.864;2023-09-30T10:25:40;6.83;;;3.03;;
4831;SDS011;2430;51.322;7.864;2023-09-30T10:31:11;6.47;;;3.00;;
4831;SDS011;2430;51.322;7.864;2023-09-30T10:36:26;9.43;;;2.87;;
4831;SDS011;2430;51.322;7.864;2023-09-30T10:38:52;10.10;;;3.17;;
4831;SDS011;2430;51.322;7.864;2023-09-30T10:44:14;6.53;;;3.17;;
4831;SDS011;2430;51.322;7.864;2023-09-30T10:46:59;6.83;;;3.03;;
4831;SDS011;2430;51.322;7.864;2023-09-30T10:49:32;7.00;;;3.10;;
4831;SDS011;2430;51.322;7.864;2023-09-30T10:51:59;9.67;;;2.97;;
4831;SDS011;2430;51.322;7.864;2023-09-30T10:54:26;8.40;;;3.10;;
4831;SDS011;2430;51.322;7.864;2023-09-30T10:56:53;7.33;;;3.33;;
4831;SDS011;2430;51.322;7.864;2023-09-30T10:59:19;7.83;;;3.50;;
4831;SDS011;2430;51.322;7.864;2023-09-30T11:01:46;6.90;;;3.40;;
4831;SDS011;2430;51.322;7.864;2023-09-30T11:04:15;8.20;;;2.80;;
4831;SDS011;2430;51.322;7.864;2023-09-30T11:06:41;7.83;;;3.00;;
4831;SDS011;2430;51.322;7.864;2023-09-30T11:09:08;8.90;;;3.10;;
4831;SDS011;2430;51.322;7.864;2023-09-30T11:11:38;8.83;;;3.17;;
4831;SDS011;2430;51.322;7.864;2023-09-30T11:14:17;5.00;;;2.60;;
4831;SDS011;2430;51.322;7.864;2023-09-30T11:16:44;5.03;;;2.60;;
4831;SDS011;2430;51.322;7.864;2023-09-30T11:19:10;8.57;;;2.80;;
4831;SDS011;2430;51.322;7.864;2023-09-30T11:21:38;6.53;;;2.77;;
4831;SDS011;2430;51.322;7.864;2023-09-30T11:24:05;4.60;;;2.43;;
4831;SDS011;2430;51.322;7.864;2023-09-30T11:26:33;7.23;;;3.30;;
4831;SDS011;2430;51.322;7.864;2023-09-30T11:29:05;8.27;;;3.13;;
4831;SDS011;2430;51.322;7.864;2023-09-30T11:31:32;5.30;;;2.57;;
4831;SDS011;2430;51.322;7.864;2023-09-30T11:33:59;9.27;;;2.90;;
4831;SDS011;2430;51.322;7.864;2023-09-30T11:36:29;3.17;;;2.10;;
4831;SDS011;2430;51.322;7.864;2023-09-30T11:38:58;5.00;;;2.20;;
4831;SDS011;2430;51.322;7.864;2023-09-30T11:41:32;5.17;;;2.33;;
4831;SDS011;2430;51.322;7.864;2023-09-30T11:43:59;5.50;;;2.37;;
4831;SDS011;2430;51.322;7.864;2023-09-30T11:46:32;5.67;;;2.50;;
4831;SDS011;2430;51.322;7.864;2023-09-30T11:49:00;6.60;;;2.57;;
4831;SDS011;2430;51.322;7.864;2023-09-30T11:51:26;6.43;;;2.47;;
4831;SDS011;2430;51.322;7.864;2023-09-30T11:53:53;5.13;;;2.03;;
4831;SDS011;2430;51.322;7.864;2023-09-30T11:56:21;6.67;;;2.80;;
4831;SDS011;2430;51.322;7.864;2023-09-30T11:58:52;5.13;;;2.60;;
4831;SDS011;2430;51.322;7.864;2023-09-30T12:01:19;7.43;;;2.60;;
4831;SDS011;2430;51.322;7.864;2023-09-30T12:03:47;6.83;;;2.20;;
4831;SDS011;2430;51.322;7.864;2023-09-30T12:06:13;5.40;;;2.50;;
4831;SDS011;2430;51.322;7.864;2023-09-30T12:08:41;4.37;;;2.17;;
4831;SDS011;2430;51.322;7.864;2023-09-30T12:11:07;3.50;;;2.00;;
4831;SDS011;2430;51.322;7.864;2023-09-30T12:13:39;8.20;;;2.60;;
4831;SDS011;2430;51.322;7.864;2023-09-30T12:16:05;8.80;;;2.63;;
4831;SDS011;2430;51.322;7.864;2023-09-30T12:18:32;5.10;;;2.90;;
4831;SDS011;2430;51.322;7.864;2023-09-30T12:20:58;7.83;;;2.90;;
4831;SDS011;2430;51.322;7.864;2023-09-30T12:23:25;6.50;;;2.83;;
4831;SDS011;2430;51.322;7.864;2023-09-30T12:25:51;4.53;;;2.60;;
4831;SDS011;2430;51.322;7.864;2023-09-30T12:28:19;5.73;;;2.37;;
4831;SDS011;2430;51.322;7.864;2023-09-30T12:30:47;5.47;;;2.43;;
4831;SDS011;2430;51.322;7.864;2023-09-30T12:33:13;7.70;;;2.67;;
4831;SDS011;2430;51.322;7.864;2023-09-30T12:35:40;6.37;;;2.23;;
4831;SDS011;2430;51.322;7.864;2023-09-30T12:38:06;4.37;;;2.50;;
4831;SDS011;2430;51.322;7.864;2023-09-30T12:40:32;4.40;;;2.50;;
4831;SDS011;2430;51.322;7.864;2023-09-30T12:42:59;6.80;;;2.60;;
4831;SDS011;2430;51.322;7.864;2023-09-30T12:45:26;4.90;;;2.40;;
4831;SDS011;2430;51.322;7.864;2023-09-30T12:47:54;4.97;;;2.30;;
4831;SDS011;2430;51.322;7.864;2023-09-30T12:50:21;5.60;;;2.80;;
4831;SDS011;2430;51.322;7.864;2023-09-30T12:52:48;4.87;;;2.20;;
4831;SDS011;2430;51.322;7.864;2023-09-30T12:55:14;7.33;;;2.57;;
4831;SDS011;2430;51.322;7.864;2023-09-30T12:57:40;4.97;;;2.27;;
4831;SDS011;2430;51.322;7.864;2023-09-30T13:00:07;5.17;;;2.50;;
4831;SDS011;2430;51.322;7.864;2023-09-30T13:02:35;4.20;;;2.23;;
4831;SDS011;2430;51.322;7.864;2023-09-30T13:05:03;4.23;;;2.20;;
4831;SDS011;2430;51.322;7.864;2023-09-30T13:07:30;5.70;;;2.30;;
4831;SDS011;2430;51.322;7.864;2023-09-30T13:09:56;4.47;;;2.33;;
4831;SDS011;2430;51.322;7.864;2023-09-30T13:12:23;4.80;;;2.93;;
4831;SDS011;2430;51.322;7.864;2023-09-30T13:14:49;5.13;;;2.40;;
4831;SDS011;2430;51.322;7.864;2023-09-30T13:17:15;5.10;;;2.43;;
4831;SDS011;2430;51.322;7.864;2023-09-30T13:19:42;5.63;;;2.67;;
4831;SDS011;2430;51.322;7.864;2023-09-30T13:22:09;4.03;;;2.20;;
4831;SDS011;2430;51.322;7.864;2023-09-30T13:24:37;3.90;;;2.33;;
4831;SDS011;2430;51.322;7.864;2023-09-30T13:27:04;3.53;;;2.17;;
4831;SDS011;2430;51.322;7.864;2023-09-30T13:29:31;3.87;;;2.10;;
4831;SDS011;2430;51.322;7.864;2023-09-30T13:31:57;5.43;;;2.20;;
4831;SDS011;2430;51.322;7.864;2023-09-30T13:34:24;6.13;;;2.50;;
4831;SDS011;2430;51.322;7.864;2023-09-30T13:36:50;5.17;;;2.30;;
4831;SDS011;2430;51.322;7.864;2023-09-30T13:39:18;8.50;;;2.20;;
4831;SDS011;2430;51.322;7.864;2023-09-30T13:41:44;5.57;;;2.40;;
4831;SDS011;2430;51.322;7.864;2023-09-30T13:44:12;7.50;;;3.00;;
4831;SDS011;2430;51.322;7.864;2023-09-30T13:46:38;5.47;;;2.60;;
4831;SDS011;2430;51.322;7.864;2023-09-30T13:49:05;4.37;;;2.57;;
4831;SDS011;2430;51.322;7.864;2023-09-30T13:51:31;7.00;;;2.40;;
4831;SDS011;2430;51.322;7.864;2023-09-30T13:53:57;5.93;;;3.30;;
4831;SDS011;2430;51.322;7.864;2023-09-30T13:56:25;6.17;;;2.80;;
4831;SDS011;2430;51.322;7.864;2023-09-30T13:58:52;10.50;;;2.83;;
4831;SDS011;2430;51.322;7.864;2023-09-30T14:01:19;7.70;;;2.93;;
4831;SDS011;2430;51.322;7.864;2023-09-30T14:03:45;6.03;;;3.10;;
4831;SDS011;2430;51.322;7.864;2023-09-30T14:06:12;6.00;;;2.63;;
4831;SDS011;2430;51.322;7.864;2023-09-30T14:08:38;5.73;;;2.77;;
4831;SDS011;2430;51.322;7.864;2023-09-30T14:11:04;4.47;;;2.33;;
4831;SDS011;2430;51.322;7.864;2023-09-30T14:13:32;6.83;;;2.90;;
4831;SDS011;2430;51.322;7.864;2023-09-30T14:15:58;7.03;;;3.17;;
4831;SDS011;2430;51.322;7.864;2023-09-30T14:18:25;4.17;;;2.40;;
4831;SDS011;2430;51.322;7.864;2023-09-30T14:20:52;6.77;;;3.40;;
4831;SDS011;2430;51.322;7.864;2023-09-30T14:23:18;5.30;;;2.70;;
4831;SDS011;2430;51.322;7.864;2023-09-30T14:25:45;6.13;;;2.63;;
4831;SDS011;2430;51.322;7.864;2023-09-30T14:28:11;7.23;;;2.70;;
4831;SDS011;2430;51.322;7.864;2023-09-30T14:30:40;16.70;;;2.80;;
4831;SDS011;2430;51.322;7.864;2023-09-30T14:33:06;8.80;;;2.47;;
4831;SDS011;2430;51.322;7.864;2023-09-30T14:35:33;7.47;;;2.50;;
4831;SDS011;2430;51.322;7.864;2023-09-30T14:38:00;5.33;;;2.47;;
4831;SDS011;2430;51.322;7.864;2023-09-30T14:40:26;4.47;;;2.40;;
4831;SDS011;2430;51.322;7.864;2023-09-30T14:42:52;3.90;;;2.40;;
4831;SDS011;2430;51.322;7.864;2023-09-30T14:45:19;4.70;;;2.53;;
4831;SDS011;2430;51.322;7.864;2023-09-30T14:47:47;5.07;;;2.80;;
4831;SDS011;2430;51.322;7.864;2023-09-30T14:50:14;3.90;;;2.43;;
4831;SDS011;2430;51.322;7.864;2023-09-30T14:52:41;3.90;;;2.60;;
4831;SDS011;2430;51.322;7.864;2023-09-30T14:55:07;12.20;;;3.00;;
4831;SDS011;2430;51.322;7.864;2023-09-30T14:57:34;8.50;;;3.30;;
4831;SDS011;2430;51.322;7.864;2023-09-30T15:00:00;7.50;;;3.40;;
4831;SDS011;2430;51.322;7.864;2023-09-30T15:02:27;4.77;;;2.80;;
4831;SDS011;2430;51.322;7.864;2023-09-30T15:04:55;7.30;;;2.70;;
4831;SDS011;2430;51.322;7.864;2023-09-30T15:07:21;5.30;;;2.40;;
4831;SDS011;2430;51.322;7.864;2023-09-30T15:09:48;5.23;;;2.40;;
4831;SDS011;2430;51.322;7.864;2023-09-30T15:12:15;7.80;;;2.60;;
4831;SDS011;2430;51.322;7.864;2023-09-30T15:14:41;4.77;;;2.37;;
4831;SDS011;2430;51.322;7.864;2023-09-30T15:17:08;5.43;;;2.37;;
4831;SDS011;2430;51.322;7.864;2023-09-30T15:19:37;7.57;;;2.30;;